sensor_id;sensor_type;location;lat;lon;timestamp;temperature;humidity
46490;DHT22;32204;49.160;8.580;2023-05-02T00:01:49;13.50;99.90
46490;DHT22;32204;49.160;8.580;2023-05-02T00:04:16;13.50;1.00
46490;DHT22;32204;49.160;8.580;2023-05-02T00:06:41;13.50;1.00
46490;DHT22;32204;49.160;8.580;2023-05-02T00:09:07;13.50;1.00
46490;DHT22;32204;49.160;8.580;2023-05-02T00:11:33;13.40;1.00
46490;DHT22;32204;49.160;8.580;2023-05-02T00:13:59;13.30;1.00
46490;DHT22;32204;49.160;8.580;2023-05-02T00:16:25;13.10;1.00
46490;DHT22;32204;49.160;8.580;2023-05-02T00:18:50;13.10;1.00
46490;DHT22;32204;49.160;8.580;2023-05-02T00:21:16;13.10;1.00
46490;DHT22;32204;49.160;8.580;2023-05-02T00:23:41;13.10;1.00
46490;DHT22;32204;49.160;8.580;2023-05-02T00:26:08;13.10;1.00
46490;DHT22;32204;49.160;8.580;2023-05-02T00:28:34;13.10;1.00
46490;DHT22;32204;49.160;8.580;2023-05-02T00:31:00;13.10;1.00
46490;DHT22;32204;49.160;8.580;2023-05-02T00:33:25;13.10;1.00
46490;DHT22;32204;49.160;8.580;2023-05-02T00:35:51;13.00;8.60
46490;DHT22;32204;49.160;8.580;2023-05-02T00:38:17;13.00;1.00
46490;DHT22;32204;49.160;8.580;2023-05-02T00:40:47;12.90;1.00
46490;DHT22;32204;49.160;8.580;2023-05-02T00:43:14;12.90;21.30
46490;DHT22;32204;49.160;8.580;2023-05-02T00:45:42;12.90;99.90
46490;DHT22;32204;49.160;8.580;2023-05-02T00:48:11;12.80;93.70
46490;DHT22;32204;49.160;8.580;2023-05-02T00:50:39;12.90;39.00
46490;DHT22;32204;49.160;8.580;2023-05-02T00:53:06;12.90;17.90
46490;DHT22;32204;49.160;8.580;2023-05-02T00:55:32;12.90;1.00
46490;DHT22;32204;49.160;8.580;2023-05-02T00:58:02;12.90;49.10
46490;DHT22;32204;49.160;8.580;2023-05-02T01:03:45;12.90;1.00
46490;DHT22;32204;49.160;8.580;2023-05-02T01:06:35;12.80;16.90
46490;DHT22;32204;49.160;8.580;2023-05-02T01:09:47;12.80;24.00
46490;DHT22;32204;49.160;8.580;2023-05-02T01:12:30;12.70;39.60
46490;DHT22;32204;49.160;8.580;2023-05-02T01:15:03;12.60;31.80
46490;DHT22;32204;49.160;8.580;2023-05-02T01:17:32;12.60;99.90
46490;DHT22;32204;49.160;8.580;2023-05-02T01:20:02;12.60;99.90
46490;DHT22;32204;49.160;8.580;2023-05-02T01:22:30;12.60;99.90
46490;DHT22;32204;49.160;8.580;2023-05-02T01:30:07;12.50;46.90
46490;DHT22;32204;49.160;8.580;2023-05-02T01:32:34;12.50;61.10
46490;DHT22;32204;49.160;8.580;2023-05-02T01:35:02;12.40;95.00
46490;DHT22;32204;49.160;8.580;2023-05-02T01:37:29;12.30;46.10
46490;DHT22;32204;49.160;8.580;2023-05-02T01:39:56;12.20;99.90
46490;DHT22;32204;49.160;8.580;2023-05-02T01:42:24;12.20;99.90
46490;DHT22;32204;49.160;8.580;2023-05-02T01:44:53;12.20;99.90
46490;DHT22;32204;49.160;8.580;2023-05-02T01:47:20;12.10;99.90
46490;DHT22;32204;49.160;8.580;2023-05-02T01:49:47;12.00;99.90
46490;DHT22;32204;49.160;8.580;2023-05-02T01:52:13;11.90;99.90
46490;DHT22;32204;49.160;8.580;2023-05-02T01:54:40;12.00;99.90
46490;DHT22;32204;49.160;8.580;2023-05-02T01:57:07;12.00;99.90
46490;DHT22;32204;49.160;8.580;2023-05-02T01:59:34;12.00;99.90
46490;DHT22;32204;49.160;8.580;2023-05-02T02:02:01;12.00;99.90
46490;DHT22;32204;49.160;8.580;2023-05-02T02:04:28;12.00;99.90
46490;DHT22;32204;49.160;8.580;2023-05-02T02:07:06;12.10;99.90
46490;DHT22;32204;49.160;8.580;2023-05-02T02:09:33;12.00;1.00
46490;DHT22;32204;49.160;8.580;2023-05-02T02:12:06;12.00;1.00
46490;DHT22;32204;49.160;8.580;2023-05-02T02:14:37;12.10;1.00
46490;DHT22;32204;49.160;8.580;2023-05-02T02:17:19;12.00;1.00
46490;DHT22;32204;49.160;8.580;2023-05-02T02:19:46;12.00;1.00
46490;DHT22;32204;49.160;8.580;2023-05-02T02:22:14;12.00;1.00
46490;DHT22;32204;49.160;8.580;2023-05-02T02:24:42;12.00;1.00
46490;DHT22;32204;49.160;8.580;2023-05-02T02:27:08;12.00;1.00
46490;DHT22;32204;49.160;8.580;2023-05-02T02:29:34;11.90;1.00
46490;DHT22;32204;49.160;8.580;2023-05-02T02:31:59;11.90;1.00
46490;DHT22;32204;49.160;8.580;2023-05-02T02:34:25;11.80;1.00
46490;DHT22;32204;49.160;8.580;2023-05-02T02:37:01;11.80;1.00
46490;DHT22;32204;49.160;8.580;2023-05-02T02:42:07;11.70;1.00
46490;DHT22;32204;49.160;8.580;2023-05-02T02:44:42;11.70;50.70
46490;DHT22;32204;49.160;8.580;2023-05-02T02:47:17;11.70;1.00
46490;DHT22;32204;49.160;8.580;2023-05-02T02:50:31;11.70;1.00
46490;DHT22;32204;49.160;8.580;2023-05-02T02:53:04;11.60;1.00
46490;DHT22;32204;49.160;8.580;2023-05-02T03:00:51;11.70;1.00
46490;DHT22;32204;49.160;8.580;2023-05-02T03:03:19;11.60;1.00
46490;DHT22;32204;49.160;8.580;2023-05-02T03:05:47;11.60;1.00
46490;DHT22;32204;49.160;8.580;2023-05-02T03:08:13;11.40;1.00
46490;DHT22;32204;49.160;8.580;2023-05-02T03:10:39;11.30;67.40
46490;DHT22;32204;49.160;8.580;2023-05-02T03:13:04;11.30;99.90
46490;DHT22;32204;49.160;8.580;2023-05-02T03:18:18;11.30;54.00
46490;DHT22;32204;49.160;8.580;2023-05-02T03:20:44;11.30;28.00
46490;DHT22;32204;49.160;8.580;2023-05-02T03:23:09;11.30;1.00
46490;DHT22;32204;49.160;8.580;2023-05-02T03:25:35;11.30;15.40
46490;DHT22;32204;49.160;8.580;2023-05-02T03:28:01;11.30;27.80
46490;DHT22;32204;49.160;8.580;2023-05-02T03:30:27;11.30;1.00
46490;DHT22;32204;49.160;8.580;2023-05-02T03:32:53;11.40;1.00
46490;DHT22;32204;49.160;8.580;2023-05-02T03:35:18;11.40;1.00
46490;DHT22;32204;49.160;8.580;2023-05-02T03:37:44;11.30;1.00
46490;DHT22;32204;49.160;8.580;2023-05-02T03:40:10;11.30;1.00
46490;DHT22;32204;49.160;8.580;2023-05-02T03:42:36;11.30;1.00
46490;DHT22;32204;49.160;8.580;2023-05-02T03:45:07;11.30;1.00
46490;DHT22;32204;49.160;8.580;2023-05-02T03:47:33;11.30;2.40
46490;DHT22;32204;49.160;8.580;2023-05-02T03:49:59;11.30;1.00
46490;DHT22;32204;49.160;8.580;2023-05-02T03:52:25;11.30;1.00
46490;DHT22;32204;49.160;8.580;2023-05-02T03:54:51;11.30;1.00
46490;DHT22;32204;49.160;8.580;2023-05-02T03:57:17;11.20;1.00
46490;DHT22;32204;49.160;8.580;2023-05-02T03:59:43;11.20;1.00
46490;DHT22;32204;49.160;8.580;2023-05-02T04:02:13;11.20;1.00
46490;DHT22;32204;49.160;8.580;2023-05-02T04:04:39;11.10;1.00
46490;DHT22;32204;49.160;8.580;2023-05-02T04:07:05;11.00;1.00
46490;DHT22;32204;49.160;8.580;2023-05-02T04:09:32;11.00;1.00
46490;DHT22;32204;49.160;8.580;2023-05-02T04:11:58;11.00;1.00
46490;DHT22;32204;49.160;8.580;2023-05-02T04:14:24;11.00;1.00
46490;DHT22;32204;49.160;8.580;2023-05-02T04:16:50;11.00;1.00
46490;DHT22;32204;49.160;8.580;2023-05-02T04:19:17;10.90;1.00
46490;DHT22;32204;49.160;8.580;2023-05-02T04:21:43;10.90;99.90
46490;DHT22;32204;49.160;8.580;2023-05-02T04:24:09;10.80;96.40
46490;DHT22;32204;49.160;8.580;2023-05-02T04:26:35;10.80;59.00
46490;DHT22;32204;49.160;8.580;2023-05-02T04:29:01;10.80;84.50
46490;DHT22;32204;49.160;8.580;2023-05-02T04:31:26;10.90;67.10
46490;DHT22;32204;49.160;8.580;2023-05-02T04:33:52;10.90;96.80
46490;DHT22;32204;49.160;8.580;2023-05-02T04:36:18;10.80;88.90
46490;DHT22;32204;49.160;8.580;2023-05-02T04:38:43;10.90;99.90
46490;DHT22;32204;49.160;8.580;2023-05-02T04:41:09;11.00;74.00
46490;DHT22;32204;49.160;8.580;2023-05-02T04:43:35;11.00;1.00
46490;DHT22;32204;49.160;8.580;2023-05-02T04:46:01;11.00;37.00
46490;DHT22;32204;49.160;8.580;2023-05-02T04:48:26;11.10;1.00
46490;DHT22;32204;49.160;8.580;2023-05-02T04:50:52;11.20;1.00
46490;DHT22;32204;49.160;8.580;2023-05-02T04:53:20;11.20;1.00
46490;DHT22;32204;49.160;8.580;2023-05-02T04:55:46;11.30;1.00
46490;DHT22;32204;49.160;8.580;2023-05-02T04:58:11;11.60;1.00
46490;DHT22;32204;49.160;8.580;2023-05-02T05:00:37;12.00;99.90
46490;DHT22;32204;49.160;8.580;2023-05-02T05:03:03;12.40;1.00
46490;DHT22;32204;49.160;8.580;2023-05-02T05:05:28;12.40;99.90
46490;DHT22;32204;49.160;8.580;2023-05-02T05:07:54;12.10;1.00
46490;DHT22;32204;49.160;8.580;2023-05-02T05:10:19;12.00;22.70
46490;DHT22;32204;49.160;8.580;2023-05-02T05:12:45;11.70;99.90
46490;DHT22;32204;49.160;8.580;2023-05-02T05:15:11;11.80;99.90
46490;DHT22;32204;49.160;8.580;2023-05-02T05:17:36;11.80;99.90
46490;DHT22;32204;49.160;8.580;2023-05-02T05:20:02;11.90;99.90
46490;DHT22;32204;49.160;8.580;2023-05-02T05:22:29;11.90;99.90
46490;DHT22;32204;49.160;8.580;2023-05-02T05:24:54;11.80;99.90
46490;DHT22;32204;49.160;8.580;2023-05-02T05:27:20;11.80;99.90
46490;DHT22;32204;49.160;8.580;2023-05-02T05:29:46;11.70;99.90
46490;DHT22;32204;49.160;8.580;2023-05-02T05:32:12;11.70;1.00
46490;DHT22;32204;49.160;8.580;2023-05-02T05:34:37;11.70;1.00
46490;DHT22;32204;49.160;8.580;2023-05-02T05:37:03;11.60;1.00
46490;DHT22;32204;49.160;8.580;2023-05-02T05:39:29;11.50;1.00
46490;DHT22;32204;49.160;8.580;2023-05-02T05:41:55;11.50;1.00
46490;DHT22;32204;49.160;8.580;2023-05-02T05:44:21;11.60;1.00
46490;DHT22;32204;49.160;8.580;2023-05-02T05:46:47;11.60;1.00
46490;DHT22;32204;49.160;8.580;2023-05-02T05:49:15;11.60;1.00
46490;DHT22;32204;49.160;8.580;2023-05-02T05:51:41;11.70;1.00
46490;DHT22;32204;49.160;8.580;2023-05-02T05:54:06;11.80;1.00
46490;DHT22;32204;49.160;8.580;2023-05-02T05:56:32;12.00;1.00
46490;DHT22;32204;49.160;8.580;2023-05-02T05:58:58;12.00;1.00
46490;DHT22;32204;49.160;8.580;2023-05-02T06:01:23;11.90;1.00
46490;DHT22;32204;49.160;8.580;2023-05-02T06:03:49;11.90;1.00
46490;DHT22;32204;49.160;8.580;2023-05-02T06:06:14;12.00;1.00
46490;DHT22;32204;49.160;8.580;2023-05-02T06:08:40;12.10;1.00
46490;DHT22;32204;49.160;8.580;2023-05-02T06:11:09;12.10;99.90
46490;DHT22;32204;49.160;8.580;2023-05-02T06:13:36;12.10;1.00
46490;DHT22;32204;49.160;8.580;2023-05-02T06:16:02;12.20;99.90
46490;DHT22;32204;49.160;8.580;2023-05-02T06:18:27;12.20;1.00
46490;DHT22;32204;49.160;8.580;2023-05-02T06:20:56;12.40;99.90
46490;DHT22;32204;49.160;8.580;2023-05-02T06:23:22;12.40;99.90
46490;DHT22;32204;49.160;8.580;2023-05-02T06:25:47;12.50;99.90
46490;DHT22;32204;49.160;8.580;2023-05-02T06:28:13;12.60;99.90
46490;DHT22;32204;49.160;8.580;2023-05-02T06:30:38;12.90;1.00
46490;DHT22;32204;49.160;8.580;2023-05-02T06:33:05;13.20;99.90
46490;DHT22;32204;49.160;8.580;2023-05-02T06:35:31;13.70;1.00
46490;DHT22;32204;49.160;8.580;2023-05-02T06:37:56;13.70;99.90
46490;DHT22;32204;49.160;8.580;2023-05-02T06:40:22;13.80;50.70
46490;DHT22;32204;49.160;8.580;2023-05-02T06:42:47;13.90;1.00
46490;DHT22;32204;49.160;8.580;2023-05-02T06:45:13;14.30;99.90
46490;DHT22;32204;49.160;8.580;2023-05-02T06:47:39;14.30;99.90
46490;DHT22;32204;49.160;8.580;2023-05-02T06:50:05;14.10;99.90
46490;DHT22;32204;49.160;8.580;2023-05-02T06:52:30;13.90;66.70
46490;DHT22;32204;49.160;8.580;2023-05-02T06:54:56;13.80;1.00
46490;DHT22;32204;49.160;8.580;2023-05-02T06:57:23;13.60;1.00
46490;DHT22;32204;49.160;8.580;2023-05-02T06:59:49;13.50;1.00
46490;DHT22;32204;49.160;8.580;2023-05-02T07:02:14;13.60;99.90
46490;DHT22;32204;49.160;8.580;2023-05-02T07:04:40;13.60;99.90
46490;DHT22;32204;49.160;8.580;2023-05-02T07:07:06;13.70;4.00
46490;DHT22;32204;49.160;8.580;2023-05-02T07:09:31;13.90;1.00
46490;DHT22;32204;49.160;8.580;2023-05-02T07:11:57;13.90;1.00
46490;DHT22;32204;49.160;8.580;2023-05-02T07:14:25;14.00;1.00
46490;DHT22;32204;49.160;8.580;2023-05-02T07:16:53;14.30;20.80
46490;DHT22;32204;49.160;8.580;2023-05-02T07:19:19;14.90;14.50
46490;DHT22;32204;49.160;8.580;2023-05-02T07:21:45;15.30;99.90
46490;DHT22;32204;49.160;8.580;2023-05-02T07:24:12;15.50;1.00
46490;DHT22;32204;49.160;8.580;2023-05-02T07:26:38;15.60;99.90
46490;DHT22;32204;49.160;8.580;2023-05-02T07:29:03;15.60;99.90
46490;DHT22;32204;49.160;8.580;2023-05-02T07:31:31;15.80;98.40
46490;DHT22;32204;49.160;8.580;2023-05-02T07:33:56;15.80;99.90
46490;DHT22;32204;49.160;8.580;2023-05-02T07:36:22;15.80;1.00
46490;DHT22;32204;49.160;8.580;2023-05-02T07:38:47;15.80;1.00
46490;DHT22;32204;49.160;8.580;2023-05-02T07:41:13;15.60;99.90
46490;DHT22;32204;49.160;8.580;2023-05-02T07:43:39;15.40;1.00
46490;DHT22;32204;49.160;8.580;2023-05-02T07:46:05;15.20;99.90
46490;DHT22;32204;49.160;8.580;2023-05-02T07:48:30;15.10;99.90
46490;DHT22;32204;49.160;8.580;2023-05-02T07:51:05;15.40;99.90
46490;DHT22;32204;49.160;8.580;2023-05-02T07:53:31;15.80;99.90
46490;DHT22;32204;49.160;8.580;2023-05-02T07:55:56;16.10;99.90
46490;DHT22;32204;49.160;8.580;2023-05-02T07:58:22;16.20;99.90
46490;DHT22;32204;49.160;8.580;2023-05-02T08:00:48;16.40;99.90
46490;DHT22;32204;49.160;8.580;2023-05-02T08:03:14;16.50;1.00
46490;DHT22;32204;49.160;8.580;2023-05-02T08:05:40;16.30;1.00
46490;DHT22;32204;49.160;8.580;2023-05-02T08:08:05;16.20;95.00
46490;DHT22;32204;49.160;8.580;2023-05-02T08:10:31;16.40;23.10
46490;DHT22;32204;49.160;8.580;2023-05-02T08:12:57;16.40;1.00
46490;DHT22;32204;49.160;8.580;2023-05-02T08:15:23;16.30;28.30
46490;DHT22;32204;49.160;8.580;2023-05-02T08:17:49;16.20;91.40
46490;DHT22;32204;49.160;8.580;2023-05-02T08:20:15;16.20;99.90
46490;DHT22;32204;49.160;8.580;2023-05-02T08:22:41;16.10;1.00
46490;DHT22;32204;49.160;8.580;2023-05-02T08:25:06;16.10;54.00
46490;DHT22;32204;49.160;8.580;2023-05-02T08:27:32;15.90;1.00
46490;DHT22;32204;49.160;8.580;2023-05-02T08:29:59;15.80;99.90
46490;DHT22;32204;49.160;8.580;2023-05-02T08:32:25;15.70;99.90
46490;DHT22;32204;49.160;8.580;2023-05-02T08:34:54;15.90;99.90
46490;DHT22;32204;49.160;8.580;2023-05-02T08:37:21;15.90;99.90
46490;DHT22;32204;49.160;8.580;2023-05-02T08:39:47;16.20;99.90
46490;DHT22;32204;49.160;8.580;2023-05-02T08:42:13;16.40;99.90
46490;DHT22;32204;49.160;8.580;2023-05-02T08:44:38;16.40;33.10
46490;DHT22;32204;49.160;8.580;2023-05-02T08:47:04;16.60;1.00
46490;DHT22;32204;49.160;8.580;2023-05-02T08:49:34;16.40;1.00
46490;DHT22;32204;49.160;8.580;2023-05-02T08:52:01;16.20;99.90
46490;DHT22;32204;49.160;8.580;2023-05-02T08:54:27;16.30;1.00
46490;DHT22;32204;49.160;8.580;2023-05-02T08:56:53;16.20;99.90
46490;DHT22;32204;49.160;8.580;2023-05-02T08:59:19;16.30;1.00
46490;DHT22;32204;49.160;8.580;2023-05-02T09:01:48;16.50;99.90
46490;DHT22;32204;49.160;8.580;2023-05-02T09:04:14;16.70;99.90
46490;DHT22;32204;49.160;8.580;2023-05-02T09:06:39;17.00;1.00
46490;DHT22;32204;49.160;8.580;2023-05-02T09:09:05;17.00;1.00
46490;DHT22;32204;49.160;8.580;2023-05-02T09:11:31;17.00;99.90
46490;DHT22;32204;49.160;8.580;2023-05-02T09:13:57;17.00;1.00
46490;DHT22;32204;49.160;8.580;2023-05-02T09:16:28;16.90;1.00
46490;DHT22;32204;49.160;8.580;2023-05-02T09:18:56;16.90;1.00
46490;DHT22;32204;49.160;8.580;2023-05-02T09:21:34;16.90;1.00
46490;DHT22;32204;49.160;8.580;2023-05-02T09:24:01;16.90;1.00
46490;DHT22;32204;49.160;8.580;2023-05-02T09:26:29;16.90;56.40
46490;DHT22;32204;49.160;8.580;2023-05-02T09:28:57;17.00;95.60
46490;DHT22;32204;49.160;8.580;2023-05-02T09:31:27;17.10;1.00
46490;DHT22;32204;49.160;8.580;2023-05-02T09:34:16;17.00;1.00
46490;DHT22;32204;49.160;8.580;2023-05-02T09:36:46;17.40;99.90
46490;DHT22;32204;49.160;8.580;2023-05-02T09:39:14;17.60;99.90
46490;DHT22;32204;49.160;8.580;2023-05-02T09:41:41;17.70;99.90
46490;DHT22;32204;49.160;8.580;2023-05-02T09:44:12;17.90;99.90
46490;DHT22;32204;49.160;8.580;2023-05-02T09:46:39;17.30;99.90
46490;DHT22;32204;49.160;8.580;2023-05-02T09:49:06;17.10;1.00
46490;DHT22;32204;49.160;8.580;2023-05-02T09:51:32;17.20;1.00
46490;DHT22;32204;49.160;8.580;2023-05-02T09:53:57;17.30;99.90
46490;DHT22;32204;49.160;8.580;2023-05-02T09:56:23;17.40;99.90
46490;DHT22;32204;49.160;8.580;2023-05-02T09:58:48;17.40;99.90
46490;DHT22;32204;49.160;8.580;2023-05-02T10:01:15;17.50;99.90
46490;DHT22;32204;49.160;8.580;2023-05-02T10:03:47;17.40;1.00
46490;DHT22;32204;49.160;8.580;2023-05-02T10:06:14;17.20;1.00
46490;DHT22;32204;49.160;8.580;2023-05-02T10:08:41;17.00;1.00
46490;DHT22;32204;49.160;8.580;2023-05-02T10:11:08;17.00;1.00
46490;DHT22;32204;49.160;8.580;2023-05-02T10:13:36;16.90;1.00
46490;DHT22;32204;49.160;8.580;2023-05-02T10:16:05;16.70;1.00
46490;DHT22;32204;49.160;8.580;2023-05-02T10:21:25;16.50;40.40
46490;DHT22;32204;49.160;8.580;2023-05-02T10:23:52;16.60;1.00
46490;DHT22;32204;49.160;8.580;2023-05-02T10:26:18;16.80;1.00
46490;DHT22;32204;49.160;8.580;2023-05-02T10:28:48;16.90;99.90
46490;DHT22;32204;49.160;8.580;2023-05-02T10:31:15;16.90;99.90
46490;DHT22;32204;49.160;8.580;2023-05-02T10:33:41;16.80;99.90
46490;DHT22;32204;49.160;8.580;2023-05-02T10:36:09;17.20;99.90
46490;DHT22;32204;49.160;8.580;2023-05-02T10:38:38;17.40;7.70
46490;DHT22;32204;49.160;8.580;2023-05-02T10:41:09;17.50;72.50
46490;DHT22;32204;49.160;8.580;2023-05-02T10:43:36;17.70;99.90
46490;DHT22;32204;49.160;8.580;2023-05-02T10:46:02;17.90;99.60
46490;DHT22;32204;49.160;8.580;2023-05-02T10:48:28;18.30;17.40
46490;DHT22;32204;49.160;8.580;2023-05-02T10:50:56;18.40;1.00
46490;DHT22;32204;49.160;8.580;2023-05-02T10:56:20;18.00;1.00
46490;DHT22;32204;49.160;8.580;2023-05-02T10:58:48;17.90;19.00
46490;DHT22;32204;49.160;8.580;2023-05-02T11:03:59;17.40;99.90
46490;DHT22;32204;49.160;8.580;2023-05-02T11:06:27;17.20;99.90
46490;DHT22;32204;49.160;8.580;2023-05-02T11:11:49;16.80;1.00
46490;DHT22;32204;49.160;8.580;2023-05-02T11:24:45;17.20;99.90
46490;DHT22;32204;49.160;8.580;2023-05-02T11:29:55;17.00;99.90
46490;DHT22;32204;49.160;8.580;2023-05-02T11:32:22;17.10;99.90
46490;DHT22;32204;49.160;8.580;2023-05-02T11:34:48;17.40;99.90
46490;DHT22;32204;49.160;8.580;2023-05-02T11:37:18;17.70;99.90
46490;DHT22;32204;49.160;8.580;2023-05-02T11:39:44;17.90;99.90
46490;DHT22;32204;49.160;8.580;2023-05-02T11:42:29;18.10;91.60
46490;DHT22;32204;49.160;8.580;2023-05-02T11:44:56;18.20;13.00
46490;DHT22;32204;49.160;8.580;2023-05-02T11:47:22;18.00;1.00
46490;DHT22;32204;49.160;8.580;2023-05-02T11:49:48;18.10;41.10
46490;DHT22;32204;49.160;8.580;2023-05-02T11:52:14;18.20;54.30
46490;DHT22;32204;49.160;8.580;2023-05-02T11:54:40;18.10;1.00
46490;DHT22;32204;49.160;8.580;2023-05-02T11:57:06;18.00;1.00
46490;DHT22;32204;49.160;8.580;2023-05-02T11:59:54;18.00;1.00
46490;DHT22;32204;49.160;8.580;2023-05-02T12:02:43;18.20;27.60
46490;DHT22;32204;49.160;8.580;2023-05-02T12:05:11;18.60;1.00
46490;DHT22;32204;49.160;8.580;2023-05-02T12:07:41;18.90;1.00
46490;DHT22;32204;49.160;8.580;2023-05-02T12:10:09;18.90;1.00
46490;DHT22;32204;49.160;8.580;2023-05-02T12:12:35;18.90;1.00
46490;DHT22;32204;49.160;8.580;2023-05-02T12:15:05;19.00;1.00
46490;DHT22;32204;49.160;8.580;2023-05-02T12:17:33;19.10;1.00
46490;DHT22;32204;49.160;8.580;2023-05-02T12:19:59;19.10;1.00
46490;DHT22;32204;49.160;8.580;2023-05-02T12:22:27;18.90;1.00
46490;DHT22;32204;49.160;8.580;2023-05-02T12:24:53;18.60;1.00
46490;DHT22;32204;49.160;8.580;2023-05-02T12:27:18;18.50;1.00
46490;DHT22;32204;49.160;8.580;2023-05-02T12:29:46;18.70;1.00
46490;DHT22;32204;49.160;8.580;2023-05-02T12:32:13;19.00;1.00
46490;DHT22;32204;49.160;8.580;2023-05-02T12:34:39;19.20;1.00
46490;DHT22;32204;49.160;8.580;2023-05-02T12:37:06;19.00;1.00
46490;DHT22;32204;49.160;8.580;2023-05-02T12:39:42;18.70;1.00
46490;DHT22;32204;49.160;8.580;2023-05-02T12:42:12;18.60;1.00
46490;DHT22;32204;49.160;8.580;2023-05-02T12:44:39;18.80;1.00
46490;DHT22;32204;49.160;8.580;2023-05-02T12:47:06;18.90;99.90
46490;DHT22;32204;49.160;8.580;2023-05-02T12:49:32;18.90;99.90
46490;DHT22;32204;49.160;8.580;2023-05-02T12:52:12;18.90;1.00
46490;DHT22;32204;49.160;8.580;2023-05-02T12:54:37;18.90;99.90
46490;DHT22;32204;49.160;8.580;2023-05-02T12:57:03;18.80;99.90
46490;DHT22;32204;49.160;8.580;2023-05-02T12:59:30;18.70;99.90
46490;DHT22;32204;49.160;8.580;2023-05-02T13:01:57;18.80;99.90
46490;DHT22;32204;49.160;8.580;2023-05-02T13:04:43;18.90;99.90
46490;DHT22;32204;49.160;8.580;2023-05-02T13:07:08;18.90;99.90
46490;DHT22;32204;49.160;8.580;2023-05-02T13:09:35;18.80;99.90
46490;DHT22;32204;49.160;8.580;2023-05-02T13:12:01;19.00;99.90
46490;DHT22;32204;49.160;8.580;2023-05-02T13:14:30;19.10;99.90
46490;DHT22;32204;49.160;8.580;2023-05-02T13:16:56;19.00;99.90
46490;DHT22;32204;49.160;8.580;2023-05-02T13:19:22;19.20;99.90
46490;DHT22;32204;49.160;8.580;2023-05-02T13:21:47;19.30;99.90
46490;DHT22;32204;49.160;8.580;2023-05-02T13:24:13;19.30;99.90
46490;DHT22;32204;49.160;8.580;2023-05-02T13:26:41;19.60;99.90
46490;DHT22;32204;49.160;8.580;2023-05-02T13:29:07;19.40;99.90
46490;DHT22;32204;49.160;8.580;2023-05-02T13:31:36;19.30;99.90
46490;DHT22;32204;49.160;8.580;2023-05-02T13:34:03;19.50;99.90
46490;DHT22;32204;49.160;8.580;2023-05-02T13:36:29;19.60;99.90
46490;DHT22;32204;49.160;8.580;2023-05-02T13:38:54;19.60;99.90
46490;DHT22;32204;49.160;8.580;2023-05-02T13:41:20;19.60;99.90
46490;DHT22;32204;49.160;8.580;2023-05-02T13:43:46;19.60;99.90
46490;DHT22;32204;49.160;8.580;2023-05-02T13:46:11;19.40;99.90
46490;DHT22;32204;49.160;8.580;2023-05-02T13:48:37;19.20;99.90
46490;DHT22;32204;49.160;8.580;2023-05-02T13:51:03;19.30;99.90
46490;DHT22;32204;49.160;8.580;2023-05-02T13:53:28;19.40;99.90
46490;DHT22;32204;49.160;8.580;2023-05-02T13:55:54;19.50;99.90
46490;DHT22;32204;49.160;8.580;2023-05-02T13:58:19;19.70;99.90
46490;DHT22;32204;49.160;8.580;2023-05-02T14:00:45;19.70;99.90
46490;DHT22;32204;49.160;8.580;2023-05-02T14:03:11;19.80;99.90
46490;DHT22;32204;49.160;8.580;2023-05-02T14:05:38;19.80;99.90
46490;DHT22;32204;49.160;8.580;2023-05-02T14:08:11;20.00;99.90
46490;DHT22;32204;49.160;8.580;2023-05-02T14:10:38;20.30;99.90
46490;DHT22;32204;49.160;8.580;2023-05-02T14:13:04;20.10;99.90
46490;DHT22;32204;49.160;8.580;2023-05-02T14:15:29;20.00;99.90
46490;DHT22;32204;49.160;8.580;2023-05-02T14:17:56;20.00;99.90
46490;DHT22;32204;49.160;8.580;2023-05-02T14:20:21;20.00;99.90
46490;DHT22;32204;49.160;8.580;2023-05-02T14:22:48;19.90;99.90
46490;DHT22;32204;49.160;8.580;2023-05-02T14:25:14;20.00;99.90
46490;DHT22;32204;49.160;8.580;2023-05-02T14:27:40;19.80;99.90
46490;DHT22;32204;49.160;8.580;2023-05-02T14:30:07;19.90;99.90
46490;DHT22;32204;49.160;8.580;2023-05-02T14:32:33;19.70;99.90
46490;DHT22;32204;49.160;8.580;2023-05-02T14:34:59;19.80;99.90
46490;DHT22;32204;49.160;8.580;2023-05-02T14:37:24;19.60;99.90
46490;DHT22;32204;49.160;8.580;2023-05-02T14:39:50;19.60;99.90
46490;DHT22;32204;49.160;8.580;2023-05-02T14:42:22;19.80;99.90
46490;DHT22;32204;49.160;8.580;2023-05-02T14:44:48;20.00;99.90
46490;DHT22;32204;49.160;8.580;2023-05-02T14:47:14;20.10;99.90
46490;DHT22;32204;49.160;8.580;2023-05-02T14:49:39;20.20;99.90
46490;DHT22;32204;49.160;8.580;2023-05-02T14:52:05;20.00;99.90
46490;DHT22;32204;49.160;8.580;2023-05-02T14:54:31;20.10;99.90
46490;DHT22;32204;49.160;8.580;2023-05-02T14:56:57;20.30;99.90
46490;DHT22;32204;49.160;8.580;2023-05-02T14:59:23;20.30;99.90
46490;DHT22;32204;49.160;8.580;2023-05-02T15:01:52;20.40;99.90
46490;DHT22;32204;49.160;8.580;2023-05-02T15:04:17;20.10;99.90
46490;DHT22;32204;49.160;8.580;2023-05-02T15:06:44;20.30;99.90
46490;DHT22;32204;49.160;8.580;2023-05-02T15:09:10;20.50;99.90
46490;DHT22;32204;49.160;8.580;2023-05-02T15:11:36;20.50;99.90
46490;DHT22;32204;49.160;8.580;2023-05-02T15:14:02;20.50;99.90
46490;DHT22;32204;49.160;8.580;2023-05-02T15:16:28;20.60;99.90
46490;DHT22;32204;49.160;8.580;2023-05-02T15:18:54;20.60;99.90
46490;DHT22;32204;49.160;8.580;2023-05-02T15:21:20;20.60;99.90
46490;DHT22;32204;49.160;8.580;2023-05-02T15:23:45;20.30;99.90
46490;DHT22;32204;49.160;8.580;2023-05-02T15:26:12;20.00;99.90
46490;DHT22;32204;49.160;8.580;2023-05-02T15:28:38;20.00;99.90
46490;DHT22;32204;49.160;8.580;2023-05-02T15:31:04;20.20;99.90
46490;DHT22;32204;49.160;8.580;2023-05-02T15:33:30;20.20;99.90
46490;DHT22;32204;49.160;8.580;2023-05-02T15:35:56;20.20;99.90
46490;DHT22;32204;49.160;8.580;2023-05-02T15:38:23;20.40;99.90
46490;DHT22;32204;49.160;8.580;2023-05-02T15:40:56;20.30;99.90
46490;DHT22;32204;49.160;8.580;2023-05-02T15:43:22;20.40;99.90
46490;DHT22;32204;49.160;8.580;2023-05-02T15:45:52;20.50;99.90
46490;DHT22;32204;49.160;8.580;2023-05-02T15:48:19;20.40;99.90
46490;DHT22;32204;49.160;8.580;2023-05-02T15:50:45;20.20;99.90
46490;DHT22;32204;49.160;8.580;2023-05-02T15:53:12;20.30;99.90
46490;DHT22;32204;49.160;8.580;2023-05-02T15:55:38;20.30;99.90
46490;DHT22;32204;49.160;8.580;2023-05-02T15:58:03;20.30;99.90
46490;DHT22;32204;49.160;8.580;2023-05-02T16:00:29;20.20;99.90
46490;DHT22;32204;49.160;8.580;2023-05-02T16:02:55;20.20;99.90
46490;DHT22;32204;49.160;8.580;2023-05-02T16:05:20;20.50;99.90
46490;DHT22;32204;49.160;8.580;2023-05-02T16:07:46;20.50;99.90
46490;DHT22;32204;49.160;8.580;2023-05-02T16:10:12;20.60;99.90
46490;DHT22;32204;49.160;8.580;2023-05-02T16:12:37;20.40;99.90
46490;DHT22;32204;49.160;8.580;2023-05-02T16:15:03;20.50;99.90
46490;DHT22;32204;49.160;8.580;2023-05-02T16:17:29;20.30;99.90
46490;DHT22;32204;49.160;8.580;2023-05-02T16:19:54;20.00;99.90
46490;DHT22;32204;49.160;8.580;2023-05-02T16:22:20;19.90;99.90